sensor_id;sensor_type;location;lat;lon;timestamp;pressure;altitude;pressure_sealevel;temperature
77789;BMP280;66980;44.384;0.512;2023-02-13T00:01:25;103010.81;;;19.84
77789;BMP280;66980;44.384;0.512;2023-02-13T00:03:51;103011.78;;;19.81
77789;BMP280;66980;44.384;0.512;2023-02-13T00:06:16;103012.78;;;19.78
77789;BMP280;66980;44.384;0.512;2023-02-13T00:08:42;103010.25;;;19.74
77789;BMP280;66980;44.384;0.512;2023-02-13T00:11:07;103014.75;;;19.72
77789;BMP280;66980;44.384;0.512;2023-02-13T00:13:34;103013.75;;;19.69
77789;BMP280;66980;44.384;0.512;2023-02-13T00:16:01;103011.94;;;19.66
77789;BMP280;66980;44.384;0.512;2023-02-13T00:18:27;103007.44;;;19.63
77789;BMP280;66980;44.384;0.512;2023-02-13T00:21:03;103013.94;;;19.60
77789;BMP280;66980;44.384;0.512;2023-02-13T00:23:30;103011.41;;;19.56
77789;BMP280;66980;44.384;0.512;2023-02-13T00:25:56;103012.34;;;19.53
77789;BMP280;66980;44.384;0.512;2023-02-13T00:28:22;103017.63;;;19.51
77789;BMP280;66980;44.384;0.512;2023-02-13T00:30:49;103010.31;;;19.48
77789;BMP280;66980;44.384;0.512;2023-02-13T00:33:14;103015.31;;;19.44
77789;BMP280;66980;44.384;0.512;2023-02-13T00:35:40;103015.81;;;19.42
77789;BMP280;66980;44.384;0.512;2023-02-13T00:38:07;103016.78;;;19.39
77789;BMP280;66980;44.384;0.512;2023-02-13T00:40:35;103013.78;;;19.37
77789;BMP280;66980;44.384;0.512;2023-02-13T00:43:00;103010.47;;;19.33
77789;BMP280;66980;44.384;0.512;2023-02-13T00:45:26;103010.69;;;19.30
77789;BMP280;66980;44.384;0.512;2023-02-13T00:47:51;103004.91;;;19.28
77789;BMP280;66980;44.384;0.512;2023-02-13T00:50:17;103011.41;;;19.25
77789;BMP280;66980;44.384;0.512;2023-02-13T00:52:42;103016.66;;;19.23
77789;BMP280;66980;44.384;0.512;2023-02-13T00:55:08;103016.38;;;19.20
77789;BMP280;66980;44.384;0.512;2023-02-13T00:57:33;103027.13;;;19.18
77789;BMP280;66980;44.384;0.512;2023-02-13T00:59:59;103008.81;;;19.15
77789;BMP280;66980;44.384;0.512;2023-02-13T01:02:24;103018.81;;;19.13
77789;BMP280;66980;44.384;0.512;2023-02-13T01:04:50;103021.03;;;19.09
77789;BMP280;66980;44.384;0.512;2023-02-13T01:07:16;103017.97;;;19.07
77789;BMP280;66980;44.384;0.512;2023-02-13T01:09:41;103013.47;;;19.04
77789;BMP280;66980;44.384;0.512;2023-02-13T01:12:07;103015.22;;;19.01
77789;BMP280;66980;44.384;0.512;2023-02-13T01:14:33;103016.69;;;18.97
77789;BMP280;66980;44.384;0.512;2023-02-13T01:16:58;103018.91;;;18.92
77789;BMP280;66980;44.384;0.512;2023-02-13T01:19:24;103025.63;;;18.91
77789;BMP280;66980;44.384;0.512;2023-02-13T01:21:49;103021.09;;;18.88
77789;BMP280;66980;44.384;0.512;2023-02-13T01:24:15;103022.78;;;18.86
77789;BMP280;66980;44.384;0.512;2023-02-13T01:26:41;103030.78;;;18.84
77789;BMP280;66980;44.384;0.512;2023-02-13T01:29:11;103034.50;;;18.81
77789;BMP280;66980;44.384;0.512;2023-02-13T01:31:37;103033.00;;;18.80
77789;BMP280;66980;44.384;0.512;2023-02-13T01:34:03;103035.97;;;18.76
77789;BMP280;66980;44.384;0.512;2023-02-13T01:36:28;103039.19;;;18.75
77789;BMP280;66980;44.384;0.512;2023-02-13T01:38:55;103031.91;;;18.71
77789;BMP280;66980;44.384;0.512;2023-02-13T01:41:22;103039.91;;;18.69
77789;BMP280;66980;44.384;0.512;2023-02-13T01:43:56;103038.84;;;18.67
77789;BMP280;66980;44.384;0.512;2023-02-13T01:46:26;103047.34;;;18.63
77789;BMP280;66980;44.384;0.512;2023-02-13T01:48:56;103046.31;;;18.61
77789;BMP280;66980;44.384;0.512;2023-02-13T01:51:26;103050.00;;;18.58
77789;BMP280;66980;44.384;0.512;2023-02-13T01:53:59;103052.47;;;18.56
77789;BMP280;66980;44.384;0.512;2023-02-13T01:59:06;103051.66;;;18.50
77789;BMP280;66980;44.384;0.512;2023-02-13T02:01:32;103046.38;;;18.46
77789;BMP280;66980;44.384;0.512;2023-02-13T02:04:09;103049.63;;;18.44
77789;BMP280;66980;44.384;0.512;2023-02-13T02:06:40;103065.56;;;18.40
77789;BMP280;66980;44.384;0.512;2023-02-13T02:09:15;103059.03;;;18.38
77789;BMP280;66980;44.384;0.512;2023-02-13T02:11:51;103061.00;;;18.37
77789;BMP280;66980;44.384;0.512;2023-02-13T02:14:19;103061.69;;;18.32
77789;BMP280;66980;44.384;0.512;2023-02-13T02:16:44;103059.69;;;18.33
77789;BMP280;66980;44.384;0.512;2023-02-13T02:19:19;103066.16;;;18.30
77789;BMP280;66980;44.384;0.512;2023-02-13T02:47:01;103049.53;;;18.04
77789;BMP280;66980;44.384;0.512;2023-02-13T02:55:21;103054.97;;;17.98
77789;BMP280;66980;44.384;0.512;2023-02-13T02:57:54;103040.22;;;17.95
77789;BMP280;66980;44.384;0.512;2023-02-13T03:00:41;103059.91;;;17.94
77789;BMP280;66980;44.384;0.512;2023-02-13T03:03:26;103053.38;;;17.91
77789;BMP280;66980;44.384;0.512;2023-02-13T03:06:20;103048.81;;;17.88
77789;BMP280;66980;44.384;0.512;2023-02-13T03:08:53;103051.75;;;17.85
77789;BMP280;66980;44.384;0.512;2023-02-13T03:11:40;103050.25;;;17.84
77789;BMP280;66980;44.384;0.512;2023-02-13T03:14:26;103047.25;;;17.82
77789;BMP280;66980;44.384;0.512;2023-02-13T03:16:53;103050.44;;;17.80
77789;BMP280;66980;44.384;0.512;2023-02-13T03:22:41;103051.88;;;17.76
77789;BMP280;66980;44.384;0.512;2023-02-13T03:31:21;103049.03;;;17.70
77789;BMP280;66980;44.384;0.512;2023-02-13T03:34:14;103059.78;;;17.68
77789;BMP280;66980;44.384;0.512;2023-02-13T03:40:01;103047.41;;;17.63
77789;BMP280;66980;44.384;0.512;2023-02-13T03:42:41;103047.94;;;17.62
77789;BMP280;66980;44.384;0.512;2023-02-13T03:45:20;103052.34;;;17.59
77789;BMP280;66980;44.384;0.512;2023-02-13T03:48:06;103047.38;;;17.58
77789;BMP280;66980;44.384;0.512;2023-02-13T03:50:57;103048.59;;;17.57
77789;BMP280;66980;44.384;0.512;2023-02-13T03:53:23;103057.78;;;17.54
77789;BMP280;66980;44.384;0.512;2023-02-13T03:55:50;103058.25;;;17.52
77789;BMP280;66980;44.384;0.512;2023-02-13T03:58:36;103058.25;;;17.52
77789;BMP280;66980;44.384;0.512;2023-02-13T04:01:25;103061.16;;;17.48
77789;BMP280;66980;44.384;0.512;2023-02-13T04:04:00;103062.44;;;17.47
77789;BMP280;66980;44.384;0.512;2023-02-13T04:06:45;103062.88;;;17.46
77789;BMP280;66980;44.384;0.512;2023-02-13T04:09:12;103067.31;;;17.43
77789;BMP280;66980;44.384;0.512;2023-02-13T04:14:35;103065.81;;;17.42
77789;BMP280;66980;44.384;0.512;2023-02-13T04:17:11;103065.53;;;17.40
77789;BMP280;66980;44.384;0.512;2023-02-13T04:19:39;103062.50;;;17.38
77789;BMP280;66980;44.384;0.512;2023-02-13T04:22:04;103066.94;;;17.36
77789;BMP280;66980;44.384;0.512;2023-02-13T04:24:30;103070.94;;;17.35
77789;BMP280;66980;44.384;0.512;2023-02-13T04:26:56;103073.41;;;17.33
77789;BMP280;66980;44.384;0.512;2023-02-13T04:29:23;103073.84;;;17.31
77789;BMP280;66980;44.384;0.512;2023-02-13T04:31:49;103073.56;;;17.29
77789;BMP280;66980;44.384;0.512;2023-02-13T04:34:15;103079.53;;;17.28
77789;BMP280;66980;44.384;0.512;2023-02-13T04:36:40;103080.00;;;17.26
77789;BMP280;66980;44.384;0.512;2023-02-13T04:39:06;103090.69;;;17.24
77789;BMP280;66980;44.384;0.512;2023-02-13T04:41:31;103092.38;;;17.21
77789;BMP280;66980;44.384;0.512;2023-02-13T04:43:57;103097.56;;;17.19
77789;BMP280;66980;44.384;0.512;2023-02-13T04:46:22;103099.28;;;17.17
77789;BMP280;66980;44.384;0.512;2023-02-13T04:48:48;103104.47;;;17.15
77789;BMP280;66980;44.384;0.512;2023-02-13T04:51:13;103108.94;;;17.12
77789;BMP280;66980;44.384;0.512;2023-02-13T04:53:39;103109.88;;;17.09
77789;BMP280;66980;44.384;0.512;2023-02-13T04:56:04;103104.84;;;17.08
77789;BMP280;66980;44.384;0.512;2023-02-13T04:58:30;103103.81;;;17.05
77789;BMP280;66980;44.384;0.512;2023-02-13T05:00:55;103100.78;;;17.03
77789;BMP280;66980;44.384;0.512;2023-02-13T05:03:21;103109.50;;;17.01
77789;BMP280;66980;44.384;0.512;2023-02-13T05:05:47;103105.69;;;16.99
77789;BMP280;66980;44.384;0.512;2023-02-13T05:08:12;103101.41;;;16.98
77789;BMP280;66980;44.384;0.512;2023-02-13T05:10:38;103103.88;;;16.96
77789;BMP280;66980;44.384;0.512;2023-02-13T05:13:03;103102.38;;;16.95
77789;BMP280;66980;44.384;0.512;2023-02-13T05:15:29;103115.03;;;16.92
77789;BMP280;66980;44.384;0.512;2023-02-13T05:17:54;103105.28;;;16.91
77789;BMP280;66980;44.384;0.512;2023-02-13T05:20:20;103103.78;;;16.90
77789;BMP280;66980;44.384;0.512;2023-02-13T05:22:50;103102.44;;;16.86
77789;BMP280;66980;44.384;0.512;2023-02-13T05:25:35;103110.66;;;16.86
77789;BMP280;66980;44.384;0.512;2023-02-13T05:28:02;103115.84;;;16.84
77789;BMP280;66980;44.384;0.512;2023-02-13T05:30:27;103105.06;;;16.80
77789;BMP280;66980;44.384;0.512;2023-02-13T05:32:53;103106.25;;;16.79
77789;BMP280;66980;44.384;0.512;2023-02-13T05:35:20;103113.00;;;16.78
77789;BMP280;66980;44.384;0.512;2023-02-13T05:37:46;103110.72;;;16.76
77789;BMP280;66980;44.384;0.512;2023-02-13T05:40:13;103112.84;;;16.72
77789;BMP280;66980;44.384;0.512;2023-02-13T05:42:39;103113.59;;;16.73
77789;BMP280;66980;44.384;0.512;2023-02-13T05:45:05;103111.81;;;16.70
77789;BMP280;66980;44.384;0.512;2023-02-13T05:47:31;103104.81;;;16.69
77789;BMP280;66980;44.384;0.512;2023-02-13T05:49:56;103106.03;;;16.68
77789;BMP280;66980;44.384;0.512;2023-02-13T05:52:22;103107.25;;;16.67
77789;BMP280;66980;44.384;0.512;2023-02-13T05:54:48;103110.19;;;16.63
77789;BMP280;66980;44.384;0.512;2023-02-13T05:57:13;103114.13;;;16.62
77789;BMP280;66980;44.384;0.512;2023-02-13T05:59:39;103109.88;;;16.61
77789;BMP280;66980;44.384;0.512;2023-02-13T06:02:04;103107.59;;;16.60
77789;BMP280;66980;44.384;0.512;2023-02-13T06:04:30;103106.56;;;16.57
77789;BMP280;66980;44.384;0.512;2023-02-13T06:06:55;103112.47;;;16.56
77789;BMP280;66980;44.384;0.512;2023-02-13T06:09:21;103111.00;;;16.55
77789;BMP280;66980;44.384;0.512;2023-02-13T06:11:46;103111.91;;;16.51
77789;BMP280;66980;44.384;0.512;2023-02-13T06:14:12;103113.13;;;16.50
77789;BMP280;66980;44.384;0.512;2023-02-13T06:16:39;103113.13;;;16.50
77789;BMP280;66980;44.384;0.512;2023-02-13T06:19:05;103106.63;;;16.48
77789;BMP280;66980;44.384;0.512;2023-02-13T06:21:31;103109.81;;;16.46
77789;BMP280;66980;44.384;0.512;2023-02-13T06:23:57;103106.78;;;16.44
77789;BMP280;66980;44.384;0.512;2023-02-13T06:26:23;103104.50;;;16.43
77789;BMP280;66980;44.384;0.512;2023-02-13T06:28:49;103106.03;;;16.44
77789;BMP280;66980;44.384;0.512;2023-02-13T06:31:14;103106.78;;;16.44
77789;BMP280;66980;44.384;0.512;2023-02-13T06:33:40;103104.31;;;16.46
77789;BMP280;66980;44.384;0.512;2023-02-13T06:36:06;103109.16;;;16.51
77789;BMP280;66980;44.384;0.512;2023-02-13T06:38:31;103103.81;;;16.57
77789;BMP280;66980;44.384;0.512;2023-02-13T06:40:59;103105.16;;;16.62
77789;BMP280;66980;44.384;0.512;2023-02-13T06:43:26;103111.69;;;16.64
77789;BMP280;66980;44.384;0.512;2023-02-13T06:45:51;103108.03;;;16.67
77789;BMP280;66980;44.384;0.512;2023-02-13T06:48:18;103109.09;;;16.70
77789;BMP280;66980;44.384;0.512;2023-02-13T06:50:44;103108.91;;;16.73
77789;BMP280;66980;44.384;0.512;2023-02-13T06:53:09;103105.69;;;16.75
77789;BMP280;66980;44.384;0.512;2023-02-13T06:55:35;103114.19;;;16.77
77789;BMP280;66980;44.384;0.512;2023-02-13T06:58:01;103110.09;;;16.82
77789;BMP280;66980;44.384;0.512;2023-02-13T07:00:26;103114.28;;;16.92
77789;BMP280;66980;44.384;0.512;2023-02-13T07:02:52;103121.97;;;17.02
77789;BMP280;66980;44.384;0.512;2023-02-13T07:05:18;103124.94;;;17.14
77789;BMP280;66980;44.384;0.512;2023-02-13T07:07:43;103116.47;;;17.27
77789;BMP280;66980;44.384;0.512;2023-02-13T07:10:11;103129.25;;;17.44
77789;BMP280;66980;44.384;0.512;2023-02-13T07:12:37;103123.59;;;17.63
77789;BMP280;66980;44.384;0.512;2023-02-13T07:15:03;103126.44;;;17.83
77789;BMP280;66980;44.384;0.512;2023-02-13T07:17:29;103130.97;;;18.01
77789;BMP280;66980;44.384;0.512;2023-02-13T07:19:55;103128.47;;;18.18
77789;BMP280;66980;44.384;0.512;2023-02-13T07:22:21;103128.25;;;18.36
77789;BMP280;66980;44.384;0.512;2023-02-13T07:24:46;103140.25;;;18.54
77789;BMP280;66980;44.384;0.512;2023-02-13T07:27:12;103131.75;;;18.72
77789;BMP280;66980;44.384;0.512;2023-02-13T07:29:37;103144.16;;;18.88
77789;BMP280;66980;44.384;0.512;2023-02-13T07:32:03;103135.56;;;19.01
77789;BMP280;66980;44.384;0.512;2023-02-13T07:34:29;103138.25;;;19.15
77789;BMP280;66980;44.384;0.512;2023-02-13T07:36:54;103146.38;;;19.25
77789;BMP280;66980;44.384;0.512;2023-02-13T07:39:20;103148.94;;;19.34
77789;BMP280;66980;44.384;0.512;2023-02-13T07:41:45;103143.03;;;19.41
77789;BMP280;66980;44.384;0.512;2023-02-13T07:44:11;103141.81;;;19.48
77789;BMP280;66980;44.384;0.512;2023-02-13T07:46:36;103155.63;;;19.53
77789;BMP280;66980;44.384;0.512;2023-02-13T07:49:02;103143.91;;;19.58
77789;BMP280;66980;44.384;0.512;2023-02-13T07:51:27;103146.22;;;19.60
77789;BMP280;66980;44.384;0.512;2023-02-13T07:53:53;103151.00;;;19.65
77789;BMP280;66980;44.384;0.512;2023-02-13T07:56:19;103153.25;;;19.66
77789;BMP280;66980;44.384;0.512;2023-02-13T07:58:45;103161.03;;;19.68
77789;BMP280;66980;44.384;0.512;2023-02-13T08:01:13;103151.53;;;19.69
77789;BMP280;66980;44.384;0.512;2023-02-13T08:03:38;103157.06;;;19.69
77789;BMP280;66980;44.384;0.512;2023-02-13T08:06:05;103159.81;;;19.69
77789;BMP280;66980;44.384;0.512;2023-02-13T08:08:30;103156.56;;;19.70
77789;BMP280;66980;44.384;0.512;2023-02-13T08:10:56;103159.59;;;19.73
77789;BMP280;66980;44.384;0.512;2023-02-13T08:13:46;103156.84;;;19.73
77789;BMP280;66980;44.384;0.512;2023-02-13T08:16:11;103166.59;;;19.74
77789;BMP280;66980;44.384;0.512;2023-02-13T08:18:36;103175.63;;;19.74
77789;BMP280;66980;44.384;0.512;2023-02-13T08:21:02;103173.91;;;19.77
77789;BMP280;66980;44.384;0.512;2023-02-13T08:23:28;103156.34;;;19.74
77789;BMP280;66980;44.384;0.512;2023-02-13T08:25:53;103166.09;;;19.75
77789;BMP280;66980;44.384;0.512;2023-02-13T08:28:19;103164.31;;;19.72
77789;BMP280;66980;44.384;0.512;2023-02-13T08:30:44;103164.03;;;19.70
77789;BMP280;66980;44.384;0.512;2023-02-13T08:33:10;103163.50;;;19.66
77789;BMP280;66980;44.384;0.512;2023-02-13T08:35:35;103161.22;;;19.59
77789;BMP280;66980;44.384;0.512;2023-02-13T08:38:03;103169.41;;;19.53
77789;BMP280;66980;44.384;0.512;2023-02-13T08:40:28;103165.66;;;19.51
77789;BMP280;66980;44.384;0.512;2023-02-13T08:43:02;103165.09;;;19.47
77789;BMP280;66980;44.384;0.512;2023-02-13T08:45:28;103152.03;;;19.41
77789;BMP280;66980;44.384;0.512;2023-02-13T08:47:57;103156.50;;;19.39
77789;BMP280;66980;44.384;0.512;2023-02-13T08:50:24;103157.47;;;19.36
77789;BMP280;66980;44.384;0.512;2023-02-13T08:52:50;103152.69;;;19.31
77789;BMP280;66980;44.384;0.512;2023-02-13T08:55:16;103154.41;;;19.28
77789;BMP280;66980;44.384;0.512;2023-02-13T08:57:41;103155.09;;;19.23
77789;BMP280;66980;44.384;0.512;2023-02-13T09:00:08;103155.31;;;19.19
77789;BMP280;66980;44.384;0.512;2023-02-13T09:02:33;103159.78;;;19.17
77789;BMP280;66980;44.384;0.512;2023-02-13T09:04:59;103166.28;;;19.14
77789;BMP280;66980;44.384;0.512;2023-02-13T09:07:25;103157.94;;;19.08
77789;BMP280;66980;44.384;0.512;2023-02-13T09:09:50;103159.38;;;19.04
77789;BMP280;66980;44.384;0.512;2023-02-13T09:12:16;103150.59;;;19.00
77789;BMP280;66980;44.384;0.512;2023-02-13T09:14:41;103154.31;;;18.97
77789;BMP280;66980;44.384;0.512;2023-02-13T09:17:07;103153.25;;;18.94
77789;BMP280;66980;44.384;0.512;2023-02-13T09:19:32;103151.94;;;18.89
77789;BMP280;66980;44.384;0.512;2023-02-13T09:21:58;103150.66;;;18.85
77789;BMP280;66980;44.384;0.512;2023-02-13T09:24:24;103147.34;;;18.81
77789;BMP280;66980;44.384;0.512;2023-02-13T09:26:50;103148.34;;;18.78
77789;BMP280;66980;44.384;0.512;2023-02-13T09:29:15;103143.00;;;18.74
77789;BMP280;66980;44.384;0.512;2023-02-13T09:31:41;103152.22;;;18.71
77789;BMP280;66980;44.384;0.512;2023-02-13T09:34:06;103146.94;;;18.67
77789;BMP280;66980;44.384;0.512;2023-02-13T09:36:32;103154.16;;;18.65
77789;BMP280;66980;44.384;0.512;2023-02-13T09:38:58;103155.88;;;18.62
77789;BMP280;66980;44.384;0.512;2023-02-13T09:41:38;103149.06;;;18.58
77789;BMP280;66980;44.384;0.512;2023-02-13T09:44:11;103150.50;;;18.53
77789;BMP280;66980;44.384;0.512;2023-02-13T09:47:00;103151.44;;;18.50
77789;BMP280;66980;44.384;0.512;2023-02-13T09:49:31;103153.16;;;18.47
77789;BMP280;66980;44.384;0.512;2023-02-13T09:51:58;103146.81;;;18.41
77789;BMP280;66980;44.384;0.512;2023-02-13T09:54:23;103159.84;;;18.41
77789;BMP280;66980;44.384;0.512;2023-02-13T09:56:58;103151.75;;;18.37
77789;BMP280;66980;44.384;0.512;2023-02-13T09:59:44;103156.72;;;18.33
77789;BMP280;66980;44.384;0.512;2023-02-13T10:02:38;103149.88;;;18.29
77789;BMP280;66980;44.384;0.512;2023-02-13T10:05:22;103154.38;;;18.26
77789;BMP280;66980;44.384;0.512;2023-02-13T10:08:11;103157.78;;;18.21
77789;BMP280;66980;44.384;0.512;2023-02-13T10:21:11;103160.34;;;18.10
77789;BMP280;66980;44.384;0.512;2023-02-13T10:23:42;103158.09;;;18.08
77789;BMP280;66980;44.384;0.512;2023-02-13T10:26:17;103154.28;;;18.06
77789;BMP280;66980;44.384;0.512;2023-02-13T10:28:58;103158.00;;;18.03
77789;BMP280;66980;44.384;0.512;2023-02-13T10:31:47;103154.97;;;18.01
77789;BMP280;66980;44.384;0.512;2023-02-13T10:34:16;103154.66;;;17.98
77789;BMP280;66980;44.384;0.512;2023-02-13T10:36:45;103154.66;;;17.98
77789;BMP280;66980;44.384;0.512;2023-02-13T10:39:21;103150.91;;;17.96
77789;BMP280;66980;44.384;0.512;2023-02-13T10:42:21;103156.09;;;17.94
77789;BMP280;66980;44.384;0.512;2023-02-13T10:47:58;103154.78;;;17.89
77789;BMP280;66980;44.384;0.512;2023-02-13T10:50:44;103152.03;;;17.89
77789;BMP280;66980;44.384;0.512;2023-02-13T10:53:18;103156.47;;;17.87
77789;BMP280;66980;44.384;0.512;2023-02-13T10:59:36;103145.66;;;17.83
77789;BMP280;66980;44.384;0.512;2023-02-13T11:02:24;103139.44;;;17.83
77789;BMP280;66980;44.384;0.512;2023-02-13T11:04:54;103144.16;;;17.82
77789;BMP280;66980;44.384;0.512;2023-02-13T11:07:23;103142.19;;;17.83
77789;BMP280;66980;44.384;0.512;2023-02-13T11:09:53;103137.91;;;17.82
77789;BMP280;66980;44.384;0.512;2023-02-13T11:15:02;103143.88;;;17.80
77789;BMP280;66980;44.384;0.512;2023-02-13T11:17:34;103132.41;;;17.82
77789;BMP280;66980;44.384;0.512;2023-02-13T11:20:06;103133.16;;;17.82
77789;BMP280;66980;44.384;0.512;2023-02-13T11:22:34;103127.50;;;17.86
77789;BMP280;66980;44.384;0.512;2023-02-13T11:25:22;103131.75;;;17.87
77789;BMP280;66980;44.384;0.512;2023-02-13T11:27:50;103122.25;;;17.88
77789;BMP280;66980;44.384;0.512;2023-02-13T11:33:03;103120.75;;;17.87
77789;BMP280;66980;44.384;0.512;2023-02-13T11:35:31;103104.94;;;17.82
77789;BMP280;66980;44.384;0.512;2023-02-13T11:40:44;103102.56;;;17.74
77789;BMP280;66980;44.384;0.512;2023-02-13T11:43:33;103106.25;;;17.71
77789;BMP280;66980;44.384;0.512;2023-02-13T11:46:26;103099.72;;;17.69
77789;BMP280;66980;44.384;0.512;2023-02-13T11:49:01;103093.97;;;17.67
77789;BMP280;66980;44.384;0.512;2023-02-13T11:51:48;103088.91;;;17.65
77789;BMP280;66980;44.384;0.512;2023-02-13T11:54:43;103088.91;;;17.65
77789;BMP280;66980;44.384;0.512;2023-02-13T11:57:34;103082.41;;;17.63
77789;BMP280;66980;44.384;0.512;2023-02-13T12:02:51;103082.56;;;17.59
77789;BMP280;66980;44.384;0.512;2023-02-13T12:05:19;103087.59;;;17.61
77789;BMP280;66980;44.384;0.512;2023-02-13T12:07:45;103078.31;;;17.58
77789;BMP280;66980;44.384;0.512;2023-02-13T12:15:32;103075.75;;;17.55
77789;BMP280;66980;44.384;0.512;2023-02-13T12:23:41;103070.25;;;17.55
77789;BMP280;66980;44.384;0.512;2023-02-13T12:26:19;103057.00;;;17.53
77789;BMP280;66980;44.384;0.512;2023-02-13T12:29:20;103069.25;;;17.52
77789;BMP280;66980;44.384;0.512;2023-02-13T12:37:54;103059.94;;;17.49
77789;BMP280;66980;44.384;0.512;2023-02-13T12:45:42;103056.44;;;17.49
77789;BMP280;66980;44.384;0.512;2023-02-13T12:50:56;103050.97;;;17.49
77789;BMP280;66980;44.384;0.512;2023-02-13T12:53:47;103048.69;;;17.47
77789;BMP280;66980;44.384;0.512;2023-02-13T12:59:23;103031.47;;;17.47
77789;BMP280;66980;44.384;0.512;2023-02-13T13:20:02;103022.00;;;17.48
77789;BMP280;66980;44.384;0.512;2023-02-13T13:27:50;103010.50;;;17.49
77789;BMP280;66980;44.384;0.512;2023-02-13T13:32:59;102996.03;;;17.49
77789;BMP280;66980;44.384;0.512;2023-02-13T13:35:27;103002.28;;;17.49
77789;BMP280;66980;44.384;0.512;2023-02-13T13:38:02;102987.78;;;17.49
77789;BMP280;66980;44.384;0.512;2023-02-13T13:40:46;102987.31;;;17.50
77789;BMP280;66980;44.384;0.512;2023-02-13T13:46:16;102986.09;;;17.52
77789;BMP280;66980;44.384;0.512;2023-02-13T13:48:59;102981.81;;;17.50
77789;BMP280;66980;44.384;0.512;2023-02-13T13:51:30;102985.34;;;17.51
77789;BMP280;66980;44.384;0.512;2023-02-13T13:59:24;102977.38;;;17.53
77789;BMP280;66980;44.384;0.512;2023-02-13T14:07:33;102963.91;;;17.55
77789;BMP280;66980;44.384;0.512;2023-02-13T14:10:01;102962.69;;;17.56
77789;BMP280;66980;44.384;0.512;2023-02-13T14:14:53;102962.22;;;17.58
77789;BMP280;66980;44.384;0.512;2023-02-13T14:20:35;102957.47;;;17.58
77789;BMP280;66980;44.384;0.512;2023-02-13T14:23:44;102959.75;;;17.60
77789;BMP280;66980;44.384;0.512;2023-02-13T14:28:55;102952.56;;;17.62
77789;BMP280;66980;44.384;0.512;2023-02-13T14:31:33;102950.56;;;17.63
77789;BMP280;66980;44.384;0.512;2023-02-13T14:34:05;102943.03;;;17.63
77789;BMP280;66980;44.384;0.512;2023-02-13T14:36:33;102943.81;;;17.64
77789;BMP280;66980;44.384;0.512;2023-02-13T14:41:55;102937.84;;;17.65
77789;BMP280;66980;44.384;0.512;2023-02-13T14:44:38;102933.88;;;17.66
77789;BMP280;66980;44.384;0.512;2023-02-13T14:47:35;102942.88;;;17.67
77789;BMP280;66980;44.384;0.512;2023-02-13T14:50:02;102938.91;;;17.68
77789;BMP280;66980;44.384;0.512;2023-02-13T14:52:33;102938.91;;;17.68
77789;BMP280;66980;44.384;0.512;2023-02-13T14:55:05;102936.41;;;17.70
77789;BMP280;66980;44.384;0.512;2023-02-13T14:57:53;102946.16;;;17.71
77789;BMP280;66980;44.384;0.512;2023-02-13T15:02:52;102940.22;;;17.72
77789;BMP280;66980;44.384;0.512;2023-02-13T15:05:19;102937.47;;;17.72
77789;BMP280;66980;44.384;0.512;2023-02-13T15:07:52;102939.44;;;17.72
77789;BMP280;66980;44.384;0.512;2023-02-13T15:13:14;102931.44;;;17.74
77789;BMP280;66980;44.384;0.512;2023-02-13T15:15:44;102936.50;;;17.76
77789;BMP280;66980;44.384;0.512;2023-02-13T15:18:20;102931.00;;;17.76
77789;BMP280;66980;44.384;0.512;2023-02-13T15:20:46;102930.25;;;17.75
77789;BMP280;66980;44.384;0.512;2023-02-13T15:23:22;102926.25;;;17.76
77789;BMP280;66980;44.384;0.512;2023-02-13T15:26:19;102929.78;;;17.77
77789;BMP280;66980;44.384;0.512;2023-02-13T15:29:15;102918.78;;;17.77
77789;BMP280;66980;44.384;0.512;2023-02-13T15:31:41;102930.53;;;17.77
77789;BMP280;66980;44.384;0.512;2023-02-13T15:34:36;102921.03;;;17.78
77789;BMP280;66980;44.384;0.512;2023-02-13T15:37:02;102929.28;;;17.78
77789;BMP280;66980;44.384;0.512;2023-02-13T15:39:29;102926.81;;;17.80
77789;BMP280;66980;44.384;0.512;2023-02-13T15:41:57;102924.06;;;17.80
77789;BMP280;66980;44.384;0.512;2023-02-13T15:44:37;102919.81;;;17.79
77789;BMP280;66980;44.384;0.512;2023-02-13T15:47:17;102922.84;;;17.81
77789;BMP280;66980;44.384;0.512;2023-02-13T15:49:45;102920.56;;;17.80
77789;BMP280;66980;44.384;0.512;2023-02-13T15:52:24;102924.84;;;17.81
77789;BMP280;66980;44.384;0.512;2023-02-13T15:54:53;102926.34;;;17.82
77789;BMP280;66980;44.384;0.512;2023-02-13T15:57:19;102926.34;;;17.82
77789;BMP280;66980;44.384;0.512;2023-02-13T15:59:45;102924.84;;;17.81
77789;BMP280;66980;44.384;0.512;2023-02-13T16:02:18;102917.34;;;17.81
77789;BMP280;66980;44.384;0.512;2023-02-13T16:04:48;102927.88;;;17.83
77789;BMP280;66980;44.384;0.512;2023-02-13T16:07:14;102924.34;;;17.82
77789;BMP280;66980;44.384;0.512;2023-02-13T16:09:40;102923.59;;;17.82
77789;BMP280;66980;44.384;0.512;2023-02-13T16:12:27;102929.09;;;17.82
77789;BMP280;66980;44.384;0.512;2023-02-13T16:14:59;102931.09;;;17.81
77789;BMP280;66980;44.384;0.512;2023-02-13T16:17:34;102931.84;;;17.82
77789;BMP280;66980;44.384;0.512;2023-02-13T16:20:04;102922.56;;;17.79
77789;BMP280;66980;44.384;0.512;2023-02-13T16:25:26;102927.28;;;17.79
77789;BMP280;66980;44.384;0.512;2023-02-13T16:30:44;102932.03;;;17.78
77789;BMP280;66980;44.384;0.512;2023-02-13T16:38:38;102926.25;;;17.76
77789;BMP280;66980;44.384;0.512;2023-02-13T16:43:46;102925.97;;;17.74
77789;BMP280;66980;44.384;0.512;2023-02-13T16:46:16;102933.44;;;17.73
77789;BMP280;66980;44.384;0.512;2023-02-13T16:51:28;102932.44;;;17.71
77789;BMP280;66980;44.384;0.512;2023-02-13T16:53:59;102933.66;;;17.70
77789;BMP280;66980;44.384;0.512;2023-02-13T16:56:27;102919.91;;;17.70
77789;BMP280;66980;44.384;0.512;2023-02-13T16:59:13;102921.16;;;17.69
77789;BMP280;66980;44.384;0.512;2023-02-13T17:01:43;102923.91;;;17.69
77789;BMP280;66980;44.384;0.512;2023-02-13T17:04:34;102934.13;;;17.68
77789;BMP280;66980;44.384;0.512;2023-02-13T17:07:04;102923.44;;;17.70
77789;BMP280;66980;44.384;0.512;2023-02-13T17:09:31;102928.25;;;17.76
77789;BMP280;66980;44.384;0.512;2023-02-13T17:11:57;102932.78;;;17.79
77789;BMP280;66980;44.384;0.512;2023-02-13T17:14:22;102932.84;;;17.84